createdAt,value
2019-02-12T00:01:27.368Z,48.30
2019-02-12T00:03:55.153Z,50.61
2019-02-12T00:06:22.892Z,49.65
2019-02-12T00:08:50.673Z,48.69
2019-02-12T00:11:18.505Z,48.59
2019-02-12T00:13:46.264Z,47.96
2019-02-12T00:16:14.108Z,48.47
2019-02-12T00:18:41.858Z,49.28
2019-02-12T00:21:09.653Z,48.41
2019-02-12T00:23:37.461Z,49.08
2019-02-12T00:26:05.275Z,48.66
2019-02-12T00:28:33.109Z,49.00
2019-02-12T00:31:00.974Z,50.25
2019-02-12T00:33:28.876Z,48.04
2019-02-12T00:35:56.712Z,49.25
2019-02-12T00:38:24.532Z,49.50
2019-02-12T00:40:52.319Z,51.16
2019-02-12T00:43:20.116Z,49.18
2019-02-12T00:45:47.874Z,49.42
2019-02-12T00:48:15.688Z,49.46
2019-02-12T00:50:43.466Z,48.90
2019-02-12T00:53:11.288Z,48.64
2019-02-12T00:55:39.040Z,47.15
2019-02-12T00:58:06.804Z,48.79
2019-02-12T01:00:34.563Z,47.72
2019-02-12T01:03:02.445Z,49.81
2019-02-12T01:05:30.267Z,48.29
2019-02-12T01:07:58.015Z,49.97
2019-02-12T01:10:25.789Z,49.16
2019-02-12T01:12:53.652Z,49.45
2019-02-12T01:15:21.529Z,48.25
2019-02-12T01:17:49.287Z,48.57
2019-02-12T01:20:17.067Z,49.09
2019-02-12T01:22:44.889Z,51.67
2019-02-12T01:25:12.652Z,51.81
2019-02-12T01:27:40.428Z,49.60
2019-02-12T01:30:10.321Z,48.95
2019-02-12T01:32:38.440Z,49.71
2019-02-12T01:35:06.212Z,48.17
2019-02-12T01:37:33.957Z,49.46
2019-02-12T01:40:01.835Z,49.60
2019-02-12T01:42:29.649Z,49.43
2019-02-12T01:44:57.481Z,49.43
2019-02-12T01:47:25.251Z,49.65
2019-02-12T01:49:52.989Z,48.72
2019-02-12T01:52:20.778Z,47.69
2019-02-12T01:54:48.582Z,49.10
2019-02-12T01:57:16.350Z,50.83
2019-02-12T01:59:44.131Z,49.34
2019-02-12T02:02:11.873Z,49.73
2019-02-12T02:04:39.680Z,48.67
2019-02-12T02:07:07.446Z,50.38
2019-02-12T02:09:35.225Z,50.06
2019-02-12T02:18:21.919Z,50.21
2019-02-12T02:20:49.810Z,50.81
2019-02-12T02:23:17.556Z,48.49
2019-02-12T02:25:45.381Z,50.06
2019-02-12T02:28:13.181Z,47.51
2019-02-12T02:30:40.925Z,48.69
2019-02-12T02:33:09.043Z,51.37
2019-02-12T02:35:36.805Z,50.27
2019-02-12T02:38:04.622Z,49.23
2019-02-12T02:40:32.416Z,49.62
2019-02-12T02:43:00.319Z,51.73
2019-02-12T02:45:28.188Z,51.50
2019-02-12T02:47:56.019Z,48.35
2019-02-12T02:50:23.796Z,49.33
2019-02-12T02:52:51.564Z,50.75
2019-02-12T02:55:19.311Z,49.16
2019-02-12T02:57:47.068Z,49.61
2019-02-12T03:00:14.903Z,48.80
2019-02-12T03:02:42.697Z,49.66
2019-02-12T03:05:10.596Z,49.37
2019-02-12T03:07:38.409Z,50.08
2019-02-12T03:10:06.345Z,49.45
2019-02-12T03:12:34.180Z,50.72
2019-02-12T03:15:01.934Z,49.27
2019-02-12T03:17:29.760Z,48.96
2019-02-12T03:19:57.665Z,50.45
2019-02-12T03:22:25.508Z,48.19
2019-02-12T03:24:53.321Z,52.40
2019-02-12T03:27:21.094Z,51.82
2019-02-12T03:29:48.888Z,49.16
2019-02-12T03:32:16.726Z,48.76
2019-02-12T03:34:44.608Z,49.46
2019-02-12T03:37:12.436Z,49.93
2019-02-12T03:39:40.189Z,53.37
2019-02-12T03:42:07.974Z,51.31
2019-02-12T03:44:35.764Z,49.49
2019-02-12T03:47:03.509Z,48.59
2019-02-12T03:49:31.403Z,48.82
2019-02-12T03:51:59.156Z,48.38
2019-02-12T03:54:26.942Z,48.61
2019-02-12T03:56:54.818Z,50.44
2019-02-12T03:59:22.548Z,49.88
2019-02-12T04:01:50.292Z,50.81
2019-02-12T04:04:18.182Z,50.85
2019-02-12T04:06:45.933Z,50.49
2019-02-12T04:09:13.696Z,54.11
2019-02-12T04:11:53.429Z,48.96
2019-02-12T04:14:21.192Z,52.07
2019-02-12T04:16:48.927Z,49.76
2019-02-12T04:19:16.693Z,50.15
2019-02-12T04:21:44.469Z,50.95
2019-02-12T04:24:12.276Z,50.62
2019-02-12T04:26:40.058Z,51.36
2019-02-12T04:29:07.821Z,49.95
2019-02-12T04:31:35.673Z,50.06
2019-02-12T04:34:03.479Z,50.97
2019-02-12T04:36:31.322Z,51.42
2019-02-12T04:38:59.138Z,51.02
2019-02-12T04:41:26.892Z,51.41
2019-02-12T04:43:54.726Z,53.21
2019-02-12T04:46:22.482Z,49.22
2019-02-12T04:48:50.252Z,50.29
2019-02-12T04:51:18.036Z,50.46
2019-02-12T04:53:45.790Z,49.89
2019-02-12T04:56:13.580Z,50.38
2019-02-12T04:58:41.316Z,49.59
2019-02-12T05:01:09.079Z,49.74
2019-02-12T05:03:36.984Z,52.53
2019-02-12T05:06:04.835Z,50.00
2019-02-12T05:08:51.980Z,50.48
2019-02-12T05:11:19.827Z,50.28
2019-02-12T05:13:47.853Z,50.35
2019-02-12T05:16:15.684Z,50.60
2019-02-12T05:18:43.521Z,51.35
2019-02-12T05:21:11.264Z,50.20
2019-02-12T05:23:39.052Z,50.52
2019-02-12T05:26:06.820Z,49.84
2019-02-12T05:28:34.666Z,50.99
2019-02-12T05:31:02.629Z,50.96
2019-02-12T05:33:30.597Z,52.29
2019-02-12T05:35:58.483Z,53.92
2019-02-12T05:38:26.415Z,49.80
2019-02-12T05:40:54.267Z,50.40
2019-02-12T05:43:22.068Z,50.85
2019-02-12T05:45:49.928Z,50.57
2019-02-12T05:48:17.757Z,50.13
2019-02-12T05:50:45.721Z,49.58
2019-02-12T05:53:14.113Z,50.30
2019-02-12T05:55:41.996Z,50.40
2019-02-12T05:58:09.915Z,53.17
2019-02-12T06:00:37.870Z,50.31
2019-02-12T06:03:05.655Z,49.38
2019-02-12T06:05:33.484Z,50.63
2019-02-12T06:08:01.292Z,51.66
2019-02-12T06:10:29.148Z,51.46
2019-02-12T06:12:56.886Z,50.49
2019-02-12T06:15:24.701Z,50.70
2019-02-12T06:17:52.634Z,50.67
2019-02-12T06:20:20.585Z,51.28
2019-02-12T06:22:48.673Z,52.73
2019-02-12T06:25:16.414Z,50.94
2019-02-12T06:27:44.165Z,52.03
2019-02-12T06:30:11.904Z,50.12
2019-02-12T06:32:39.762Z,54.21
2019-02-12T06:35:07.824Z,51.15
2019-02-12T06:37:35.560Z,51.18
2019-02-12T06:40:03.705Z,52.53
2019-02-12T06:42:31.534Z,50.10
2019-02-12T06:44:59.438Z,51.37
2019-02-12T06:47:27.209Z,51.08
2019-02-12T06:49:54.965Z,51.50
2019-02-12T06:52:22.751Z,51.92
2019-02-12T06:54:50.521Z,50.12
2019-02-12T06:57:18.294Z,50.87
2019-02-12T06:59:46.150Z,53.06
2019-02-12T07:02:32.241Z,51.16
2019-02-12T07:05:00.024Z,50.13
2019-02-12T07:08:02.575Z,50.41
2019-02-12T07:10:33.316Z,51.61
2019-02-12T07:13:16.502Z,50.44
2019-02-12T07:16:00.433Z,50.08
2019-02-12T07:18:46.460Z,55.17
2019-02-12T07:21:42.864Z,51.22
2019-02-12T07:24:35.920Z,49.99
2019-02-12T07:27:31.945Z,52.29
2019-02-12T07:30:12.661Z,50.64
2019-02-12T07:32:50.056Z,49.45
2019-02-12T07:35:46.324Z,49.93
2019-02-12T07:38:39.541Z,48.60
2019-02-12T07:41:24.481Z,49.44
2019-02-12T07:44:04.298Z,47.28
2019-02-12T07:46:50.457Z,48.68
2019-02-12T07:49:28.525Z,50.32
2019-02-12T07:52:21.895Z,49.80
2019-02-12T07:54:52.976Z,47.45
2019-02-12T07:57:45.916Z,49.50
2019-02-12T08:00:17.981Z,49.68
2019-02-12T08:03:11.294Z,50.13
2019-02-12T08:05:51.287Z,49.66
2019-02-12T08:08:47.649Z,47.82
2019-02-12T08:11:18.252Z,47.84
2019-02-12T08:14:02.314Z,48.39
2019-02-12T08:16:42.767Z,49.70
2019-02-12T08:19:24.784Z,48.78
2019-02-12T08:22:30.357Z,47.30
2019-02-12T08:25:04.143Z,47.45
2019-02-12T08:27:57.006Z,50.72
2019-02-12T08:30:46.396Z,47.29
2019-02-12T08:33:33.433Z,45.32
2019-02-12T08:36:20.452Z,47.46
2019-02-12T08:39:07.606Z,47.16
2019-02-12T08:41:53.475Z,48.07
2019-02-12T08:44:25.666Z,47.63
2019-02-12T08:47:18.869Z,47.19
2019-02-12T08:50:05.899Z,46.72
2019-02-12T08:52:52.941Z,47.46
2019-02-12T08:55:24.493Z,48.86
2019-02-12T08:58:05.219Z,45.58
2019-02-12T09:00:51.964Z,47.52
2019-02-12T09:03:43.577Z,46.92
2019-02-12T09:06:15.790Z,45.00
2019-02-12T09:09:01.576Z,45.99
2019-02-12T09:11:51.737Z,48.28
2019-02-12T09:14:38.789Z,46.94
2019-02-12T09:17:35.079Z,47.95
2019-02-12T09:20:22.116Z,48.89
2019-02-12T09:23:08.164Z,47.33
2019-02-12T09:25:38.975Z,48.19
2019-02-12T09:28:13.125Z,45.50
2019-02-12T09:31:09.106Z,45.44
2019-02-12T09:33:50.224Z,46.72
2019-02-12T09:36:40.386Z,48.19
2019-02-12T09:39:35.281Z,50.18
2019-02-12T09:42:21.888Z,46.29
2019-02-12T09:44:56.163Z,49.40
2019-02-12T09:47:43.266Z,47.92
2019-02-12T09:50:17.234Z,48.04
2019-02-12T09:53:07.368Z,48.14
2019-02-12T09:55:57.303Z,46.99
2019-02-12T09:58:28.814Z,47.49
2019-02-12T10:00:59.364Z,45.20
2019-02-12T10:03:33.428Z,47.19
2019-02-12T10:06:22.226Z,45.97
2019-02-12T10:09:09.650Z,43.90
2019-02-12T10:11:55.397Z,46.07
2019-02-12T10:14:41.435Z,46.13
2019-02-12T10:17:28.540Z,47.02
2019-02-12T10:20:03.289Z,48.14
2019-02-12T10:22:52.201Z,47.40
2019-02-12T10:25:28.849Z,46.88
2019-02-12T10:27:59.605Z,48.84
2019-02-12T10:30:49.460Z,46.80
2019-02-12T10:33:17.404Z,46.67
2019-02-12T10:35:45.184Z,48.39
2019-02-12T10:40:40.712Z,48.85
2019-02-12T10:43:08.530Z,49.83
2019-02-12T10:45:36.277Z,47.43
2019-02-12T10:48:04.023Z,48.09
2019-02-12T10:50:31.792Z,47.67
2019-02-12T10:52:59.570Z,45.41
2019-02-12T10:55:27.313Z,48.49
2019-02-12T10:57:55.084Z,45.89
2019-02-12T11:00:22.858Z,49.52
2019-02-12T11:02:50.699Z,47.85
2019-02-12T11:05:18.527Z,47.41
2019-02-12T11:07:46.360Z,44.61
2019-02-12T11:10:14.119Z,44.62
2019-02-12T11:12:41.885Z,46.35
2019-02-12T11:15:09.733Z,48.27
2019-02-12T11:17:38.643Z,46.49
2019-02-12T11:20:06.444Z,45.17
2019-02-12T11:22:34.206Z,44.52
2019-02-12T11:25:01.965Z,46.19
2019-02-12T11:27:29.809Z,47.63
2019-02-12T11:29:57.581Z,48.08
2019-02-12T11:32:25.518Z,47.36
2019-02-12T11:34:53.379Z,47.10
2019-02-12T11:37:21.142Z,48.34
2019-02-12T11:39:48.987Z,46.30
2019-02-12T11:42:16.730Z,47.02
2019-02-12T11:44:44.555Z,46.06
2019-02-12T11:47:12.339Z,46.78
2019-02-12T11:49:40.156Z,46.71
2019-02-12T11:52:08.121Z,47.58
2019-02-12T11:54:43.440Z,47.06
2019-02-12T11:57:05.392Z,48.31
2019-02-12T11:59:33.189Z,47.60
2019-02-12T12:02:00.945Z,45.39
2019-02-12T12:04:28.850Z,44.84
2019-02-12T12:06:56.743Z,48.08
2019-02-12T12:09:24.501Z,46.25
2019-02-12T12:11:52.340Z,46.39
2019-02-12T12:14:20.110Z,47.85
2019-02-12T12:16:47.849Z,48.02
2019-02-12T12:19:15.666Z,48.24
2019-02-12T12:21:43.485Z,48.78
2019-02-12T12:24:11.291Z,48.16
2019-02-12T12:26:39.032Z,48.29
2019-02-12T12:29:06.828Z,49.38
2019-02-12T12:31:34.617Z,49.86
2019-02-12T12:34:02.505Z,50.60
2019-02-12T12:36:30.332Z,50.46
2019-02-12T12:38:58.081Z,50.85
2019-02-12T12:41:25.917Z,51.00
2019-02-12T12:43:53.662Z,49.14
2019-02-12T12:46:21.431Z,49.38
2019-02-12T12:48:49.176Z,49.56
2019-02-12T12:51:17.035Z,50.03
2019-02-12T12:53:44.865Z,49.22
2019-02-12T12:56:12.988Z,48.89
2019-02-12T12:58:40.798Z,49.43
2019-02-12T13:01:08.613Z,48.53
2019-02-12T13:03:36.469Z,50.57
2019-02-12T13:06:04.279Z,51.42
2019-02-12T13:08:32.023Z,49.38
2019-02-12T13:11:00.116Z,48.38
2019-02-12T13:13:27.887Z,48.68
2019-02-12T13:15:56.005Z,49.11
2019-02-12T13:18:23.841Z,48.83
2019-02-12T13:20:51.603Z,49.27
2019-02-12T13:23:19.356Z,49.67
2019-02-12T13:25:47.186Z,51.27
2019-02-12T13:28:15.024Z,50.51
2019-02-12T13:30:42.881Z,49.43
2019-02-12T13:33:10.705Z,48.83
2019-02-12T13:35:38.479Z,51.47
2019-02-12T13:38:06.232Z,49.65
2019-02-12T13:40:34.026Z,49.42
2019-02-12T13:43:01.780Z,49.71
2019-02-12T13:45:29.560Z,49.59
2019-02-12T13:47:57.558Z,48.97
2019-02-12T13:50:25.384Z,49.25
2019-02-12T13:52:53.161Z,51.43
2019-02-12T13:55:22.606Z,48.44
2019-02-12T13:57:50.607Z,49.17
2019-02-12T14:00:18.387Z,47.35
2019-02-12T14:02:46.164Z,49.27
2019-02-12T14:05:14.924Z,48.45
2019-02-12T14:07:42.772Z,49.03
2019-02-12T14:10:10.697Z,49.28
2019-02-12T14:12:38.484Z,49.61
2019-02-12T14:15:06.828Z,52.16
2019-02-12T14:17:34.624Z,48.82
2019-02-12T14:20:02.489Z,48.75
2019-02-12T14:22:30.405Z,48.82
2019-02-12T14:24:58.173Z,50.25
2019-02-12T14:27:25.917Z,49.47
2019-02-12T14:29:53.961Z,49.86
2019-02-12T14:32:21.712Z,49.53
2019-02-12T14:34:49.468Z,49.32
2019-02-12T14:37:17.277Z,48.80
2019-02-12T14:39:45.016Z,48.67
2019-02-12T14:42:12.788Z,48.96
2019-02-12T14:44:40.650Z,49.45
2019-02-12T14:47:08.705Z,49.04
2019-02-12T14:49:36.555Z,48.95
2019-02-12T14:52:04.387Z,50.37
2019-02-12T14:54:32.184Z,50.02
2019-02-12T14:56:59.971Z,48.93
2019-02-12T14:59:27.760Z,49.27
2019-02-12T15:01:55.526Z,49.39
2019-02-12T15:04:23.815Z,49.11
2019-02-12T15:06:51.628Z,49.02
2019-02-12T15:09:19.550Z,49.50
2019-02-12T15:11:47.326Z,51.10
2019-02-12T15:14:15.092Z,49.62
2019-02-12T15:16:42.931Z,49.19
2019-02-12T15:19:10.768Z,49.50
2019-02-12T15:21:38.572Z,48.51
2019-02-12T15:24:07.817Z,50.59
2019-02-12T15:26:35.955Z,48.63
2019-02-12T15:29:04.649Z,49.28
2019-02-12T15:31:32.484Z,48.47
2019-02-12T15:34:00.225Z,48.17
2019-02-12T15:36:27.996Z,48.51
2019-02-12T15:38:55.734Z,48.96
2019-02-12T15:41:23.552Z,49.55
2019-02-12T15:43:51.387Z,49.50
2019-02-12T15:46:19.148Z,48.97
2019-02-12T15:48:46.930Z,48.99
2019-02-12T15:51:14.846Z,48.71
2019-02-12T15:53:43.027Z,49.37
2019-02-12T15:56:10.942Z,49.00
2019-02-12T15:58:38.754Z,49.33
2019-02-12T16:01:06.574Z,48.55
2019-02-12T16:03:36.063Z,49.03
2019-02-12T16:06:03.917Z,48.78
2019-02-12T16:08:32.105Z,48.62
2019-02-12T16:11:00.121Z,48.73
2019-02-12T16:13:27.873Z,48.62
2019-02-12T16:15:55.692Z,49.17
2019-02-12T16:18:24.925Z,48.63
2019-02-12T16:20:52.826Z,48.89
2019-02-12T16:23:20.607Z,48.83
2019-02-12T16:25:48.429Z,48.90
2019-02-12T16:28:16.249Z,48.45
2019-02-12T16:30:44.055Z,48.49
2019-02-12T16:33:12.350Z,48.51
2019-02-12T16:35:40.187Z,48.69
2019-02-12T16:38:09.421Z,48.69
2019-02-12T16:40:37.224Z,48.87
2019-02-12T16:43:05.025Z,48.92
2019-02-12T16:45:38.347Z,48.64
2019-02-12T16:48:06.177Z,48.42
2019-02-12T16:50:34.336Z,48.59
2019-02-12T16:53:02.548Z,48.65
2019-02-12T16:55:30.493Z,48.62
2019-02-12T16:57:58.375Z,48.52
2019-02-12T17:00:26.203Z,48.47
2019-02-12T17:03:00.491Z,48.48
2019-02-12T17:05:38.192Z,48.74
2019-02-12T17:08:06.090Z,48.50
2019-02-12T17:10:33.938Z,48.78
2019-02-12T17:13:01.736Z,48.57
2019-02-12T17:15:29.572Z,48.58
2019-02-12T17:17:57.420Z,48.68
2019-02-12T17:20:25.366Z,48.59
2019-02-12T17:22:53.152Z,48.41
2019-02-12T17:25:21.041Z,48.31
2019-02-12T17:27:48.822Z,48.38
2019-02-12T17:30:16.629Z,48.11
2019-02-12T17:32:44.512Z,48.09
2019-02-12T17:35:12.248Z,48.01
2019-02-12T17:37:39.998Z,47.79
2019-02-12T17:40:08.719Z,48.26
2019-02-12T17:42:36.702Z,47.75
2019-02-12T17:45:04.635Z,47.76
2019-02-12T17:47:32.381Z,47.61
2019-02-12T17:50:00.299Z,47.60
2019-02-12T17:52:28.068Z,47.54
2019-02-12T17:54:55.863Z,47.73
2019-02-12T17:57:23.628Z,47.17
2019-02-12T17:59:51.389Z,47.05
2019-02-12T18:02:19.169Z,47.17
2019-02-12T18:04:47.325Z,46.98
2019-02-12T18:07:15.369Z,47.16
2019-02-12T18:09:43.118Z,46.94
2019-02-12T18:12:10.912Z,47.04
2019-02-12T18:14:38.723Z,46.63
2019-02-12T18:17:06.719Z,47.10
2019-02-12T18:19:34.564Z,46.28
2019-02-12T18:22:02.481Z,46.59
2019-02-12T18:24:30.350Z,47.09
2019-02-12T18:26:58.235Z,46.65
2019-02-12T18:29:26.027Z,46.29
2019-02-12T18:31:55.309Z,46.03
2019-02-12T18:34:23.155Z,46.44
2019-02-12T18:36:50.936Z,46.43
2019-02-12T18:39:18.690Z,46.36
2019-02-12T18:41:47.125Z,46.59
2019-02-12T18:44:15.147Z,46.22
2019-02-12T18:46:43.013Z,45.77
2019-02-12T18:49:11.313Z,46.25
2019-02-12T18:51:39.191Z,46.11
2019-02-12T18:54:07.037Z,46.48
2019-02-12T18:56:41.433Z,46.04
2019-02-12T18:59:04.324Z,46.20
2019-02-12T19:01:32.176Z,46.72
2019-02-12T19:04:00.164Z,46.16
2019-02-12T19:06:28.302Z,46.33
2019-02-12T19:08:56.099Z,46.44
2019-02-12T19:11:23.849Z,45.70
2019-02-12T19:13:51.690Z,46.44
2019-02-12T19:16:19.638Z,45.47
2019-02-12T19:18:47.524Z,45.26
2019-02-12T19:21:16.491Z,45.59
2019-02-12T19:23:44.375Z,45.08
2019-02-12T19:26:12.343Z,44.82
2019-02-12T19:28:40.225Z,45.51
2019-02-12T19:31:08.014Z,45.13
2019-02-12T19:33:35.763Z,45.37
2019-02-12T19:36:03.680Z,45.37
2019-02-12T19:38:31.740Z,45.25
2019-02-12T19:40:59.616Z,45.82
2019-02-12T19:43:27.360Z,45.25
2019-02-12T19:45:55.176Z,45.82
2019-02-12T19:48:22.975Z,46.63
2019-02-12T19:50:50.894Z,45.58
2019-02-12T19:53:18.711Z,45.66
2019-02-12T19:55:46.657Z,45.55
2019-02-12T19:58:14.448Z,45.54
2019-02-12T20:00:42.212Z,45.82
2019-02-12T20:03:09.998Z,45.95
2019-02-12T20:05:37.781Z,45.60
2019-02-12T20:08:05.569Z,46.04
2019-02-12T20:10:33.391Z,45.88
2019-02-12T20:13:01.160Z,45.55
2019-02-12T20:15:28.976Z,45.80
2019-02-12T20:17:56.757Z,45.30
2019-02-12T20:20:24.558Z,46.00
2019-02-12T20:22:52.462Z,45.56
2019-02-12T20:25:20.359Z,45.29
2019-02-12T20:27:48.139Z,45.32
2019-02-12T20:30:15.977Z,45.41
2019-02-12T20:32:43.806Z,45.17
2019-02-12T20:35:11.910Z,45.34
2019-02-12T20:37:39.681Z,45.93
2019-02-12T20:40:07.899Z,45.36
2019-02-12T20:42:35.688Z,45.19
2019-02-12T20:45:03.860Z,45.33
2019-02-12T20:47:31.661Z,45.25
2019-02-12T20:49:59.427Z,45.29
2019-02-12T20:52:27.519Z,45.13
2019-02-12T20:54:55.422Z,45.38
2019-02-12T20:57:23.293Z,45.61
2019-02-12T20:59:51.042Z,45.99
2019-02-12T21:02:18.971Z,45.35
2019-02-12T21:04:46.740Z,45.31
2019-02-12T21:07:14.618Z,45.32
2019-02-12T21:09:42.411Z,45.52
2019-02-12T21:12:10.308Z,45.47
2019-02-12T21:14:38.172Z,45.23
2019-02-12T21:17:05.932Z,45.34
2019-02-12T21:19:33.809Z,45.09
2019-02-12T21:22:02.202Z,45.31
2019-02-12T21:24:30.128Z,45.44
2019-02-12T21:27:01.292Z,45.35
2019-02-12T21:29:29.095Z,44.97
2019-02-12T21:31:56.907Z,45.41
2019-02-12T21:34:24.674Z,45.08
2019-02-12T21:36:52.591Z,45.11
2019-02-12T21:39:22.727Z,45.32
2019-02-12T21:41:50.478Z,45.11
2019-02-12T21:44:18.358Z,45.13
2019-02-12T21:46:46.123Z,45.22
2019-02-12T21:49:13.890Z,45.25
2019-02-12T21:51:41.648Z,45.15
2019-02-12T21:54:09.383Z,44.57
2019-02-12T21:56:37.260Z,45.00
2019-02-12T21:59:05.109Z,45.11
2019-02-12T22:01:32.887Z,45.12
2019-02-12T22:04:01.028Z,45.03
2019-02-12T22:06:28.848Z,45.22
2019-02-12T22:08:56.597Z,44.91
2019-02-12T22:11:24.332Z,45.32
2019-02-12T22:13:52.165Z,45.22
2019-02-12T22:16:19.982Z,45.28
2019-02-12T22:18:47.730Z,45.06
2019-02-12T22:21:15.482Z,44.78
2019-02-12T22:23:43.369Z,44.84
2019-02-12T22:26:11.205Z,46.50
2019-02-12T22:28:38.995Z,45.30
2019-02-12T22:31:06.851Z,45.05
2019-02-12T22:33:34.709Z,45.22
2019-02-12T22:36:02.475Z,45.09
2019-02-12T22:38:30.223Z,45.61
2019-02-12T22:40:58.031Z,44.95
2019-02-12T22:43:25.857Z,45.10
2019-02-12T22:45:53.742Z,45.88
2019-02-12T22:48:21.549Z,45.08
2019-02-12T22:50:49.402Z,45.39
2019-02-12T22:53:17.229Z,45.28
2019-02-12T22:55:45.021Z,45.21
2019-02-12T22:58:12.780Z,45.23
2019-02-12T23:00:53.307Z,46.35
2019-02-12T23:03:21.117Z,44.88
2019-02-12T23:05:48.909Z,44.90
2019-02-12T23:08:16.849Z,45.61
2019-02-12T23:10:44.616Z,45.30
2019-02-12T23:13:12.379Z,44.65
2019-02-12T23:15:40.166Z,45.15
2019-02-12T23:18:08.012Z,45.84
2019-02-12T23:20:35.814Z,45.01
2019-02-12T23:23:03.749Z,45.33
2019-02-12T23:25:31.530Z,45.36
2019-02-12T23:27:59.358Z,45.12
2019-02-12T23:30:27.513Z,45.27
2019-02-12T23:32:55.292Z,45.10
2019-02-12T23:35:23.063Z,45.46
2019-02-12T23:37:50.997Z,44.99
2019-02-12T23:40:18.901Z,45.24
2019-02-12T23:43:17.201Z,45.21
2019-02-12T23:45:44.973Z,46.04
2019-02-12T23:48:12.986Z,45.05
2019-02-12T23:51:23.574Z,45.47
2019-02-12T23:53:51.496Z,45.58
2019-02-12T23:56:19.839Z,45.09
2019-02-12T23:58:47.861Z,45.56
